Time;durP1;ratioP1;P1;durP2;ratioP2;P2;SDS_P1;SDS_P2;PMS_P1;PMS_P2;Temp;Humidity;BMP_temperature;BMP_pressure;BME280_temperature;BME280_humidity;BME280_pressure;Samples;Min_cycle;Max_cycle;Signal;HPM_P1;HPM_P2
2021/07/09 00:01:56;;;;;;;4.72;2.72;;;17.60;91.40;;;;;;5054056;28;20082;-80
2021/07/09 00:04:22;;;;;;;6.00;3.00;;;17.60;91.50;;;;;;5053757;28;20029;-78
2021/07/09 00:06:48;;;;;;;6.97;2.78;;;17.50;91.60;;;;;;5054005;28;20373;-78
2021/07/09 00:09:15;;;;;;;7.05;3.45;;;17.50;91.60;;;;;;5053607;28;20477;-79
2021/07/09 00:11:43;;;;;;;7.43;2.65;;;17.50;91.70;;;;;;5053783;28;20488;-79
2021/07/09 00:14:10;;;;;;;6.50;2.80;;;17.50;91.70;;;;;;5053863;28;20025;-78
2021/07/09 00:16:37;;;;;;;9.98;3.15;;;17.50;91.60;;;;;;5053606;28;20026;-79
2021/07/09 00:19:04;;;;;;;6.63;3.00;;;17.60;91.60;;;;;;5035810;28;20051;-78
2021/07/09 00:21:31;;;;;;;6.70;3.15;;;17.50;91.70;;;;;;5034788;28;20020;-78
2021/07/09 00:23:58;;;;;;;5.88;2.50;;;17.50;91.70;;;;;;5033730;28;20523;-78
2021/07/09 00:26:24;;;;;;;7.70;3.20;;;17.50;91.60;;;;;;5034097;28;20100;-78
2021/07/09 00:28:49;;;;;;;6.10;2.85;;;17.50;91.80;;;;;;5033866;28;20030;-78
2021/07/09 00:31:15;;;;;;;6.88;2.88;;;17.50;91.90;;;;;;5033216;28;20030;-79
2021/07/09 00:33:40;;;;;;;7.63;3.05;;;17.50;91.90;;;;;;5033308;28;20033;-79
2021/07/09 00:36:06;;;;;;;7.28;3.53;;;17.40;91.90;;;;;;5033399;28;20068;-77
2021/07/09 00:38:32;;;;;;;5.78;3.25;;;17.40;92.00;;;;;;5033266;28;20122;-78
2021/07/09 00:40:58;;;;;;;7.85;2.97;;;17.40;92.10;;;;;;5032988;28;20025;-79
2021/07/09 00:43:23;;;;;;;6.55;3.15;;;17.50;91.90;;;;;;5033055;28;20100;-79
2021/07/09 00:45:50;;;;;;;6.78;3.08;;;17.50;91.80;;;;;;5033155;28;20117;-78
2021/07/09 00:48:15;;;;;;;5.05;2.70;;;17.50;91.80;;;;;;5032923;28;20100;-79
2021/07/09 00:50:41;;;;;;;6.53;3.50;;;17.50;91.70;;;;;;5032985;28;20564;-79
2021/07/09 00:53:07;;;;;;;8.27;3.28;;;17.60;91.50;;;;;;5032528;28;20414;-79
2021/07/09 00:55:33;;;;;;;5.28;2.40;;;17.40;91.80;;;;;;5032998;28;20025;-79
2021/07/09 00:58:01;;;;;;;8.48;3.28;;;17.40;91.80;;;;;;5032821;28;20025;-79
2021/07/09 01:00:29;;;;;;;6.88;3.25;;;17.40;91.90;;;;;;5032886;28;20025;-80
2021/07/09 01:02:56;;;;;;;7.97;3.35;;;17.50;91.70;;;;;;5032811;28;20036;-79
2021/07/09 01:05:21;;;;;;;6.32;2.90;;;17.50;91.70;;;;;;5033052;28;20663;-79
2021/07/09 01:07:47;;;;;;;7.78;3.45;;;17.40;91.80;;;;;;5032675;28;20034;-79
2021/07/09 01:10:16;;;;;;;7.53;3.60;;;17.30;92.20;;;;;;5032782;28;20071;-78
2021/07/09 01:12:43;;;;;;;5.95;2.70;;;17.30;92.20;;;;;;5032821;28;20030;-79
2021/07/09 01:15:11;;;;;;;5.20;2.80;;;17.40;92.10;;;;;;5032815;28;20564;-79
2021/07/09 01:17:38;;;;;;;5.97;2.30;;;17.40;92.00;;;;;;5032617;28;20036;-79
2021/07/09 01:20:09;;;;;;;5.55;2.90;;;17.40;92.20;;;;;;5039008;28;20013;-80
2021/07/09 01:22:38;;;;;;;4.72;2.28;;;17.40;92.20;;;;;;5052611;28;20031;-79
2021/07/09 01:25:12;;;;;;;7.28;3.28;;;17.40;92.20;;;;;;5052307;28;20508;-79
2021/07/09 01:27:39;;;;;;;7.90;3.10;;;17.40;92.00;;;;;;5052772;28;20032;-79
2021/07/09 01:30:10;;;;;;;6.47;3.08;;;17.30;92.00;;;;;;5052296;28;20431;-79
2021/07/09 01:32:36;;;;;;;6.28;2.92;;;17.30;92.20;;;;;;5052326;28;20100;-78
2021/07/09 01:35:04;;;;;;;6.57;3.30;;;17.30;92.30;;;;;;5034730;28;20120;-80
2021/07/09 01:37:29;;;;;;;5.85;3.03;;;17.40;92.30;;;;;;5052336;28;20037;-79
2021/07/09 01:39:55;;;;;;;4.72;3.05;;;17.30;92.30;;;;;;5052054;28;20038;-79
2021/07/09 01:42:21;;;;;;;5.50;3.00;;;17.30;92.30;;;;;;5051461;28;20055;-79
2021/07/09 01:44:46;;;;;;;6.70;2.80;;;17.30;92.30;;;;;;5052252;28;20485;-79
2021/07/09 01:47:12;;;;;;;8.85;3.13;;;17.30;92.40;;;;;;5034300;28;20021;-79
2021/07/09 01:50:08;;;;;;;7.55;3.53;;;17.30;92.60;;;;;;5051996;28;20055;-79
2021/07/09 01:52:34;;;;;;;4.88;2.63;;;17.30;92.50;;;;;;5034936;28;20055;-78
2021/07/09 01:55:01;;;;;;;6.30;3.22;;;17.30;92.40;;;;;;5052336;28;20460;-78
2021/07/09 01:57:27;;;;;;;5.78;2.70;;;17.40;92.40;;;;;;5052107;28;20032;-78
2021/07/09 01:59:54;;;;;;;5.63;3.08;;;17.50;92.30;;;;;;5051960;28;20028;-79
2021/07/09 02:02:20;;;;;;;6.47;3.08;;;17.50;92.20;;;;;;5052051;28;20102;-78
2021/07/09 02:04:51;;;;;;;8.02;2.90;;;17.40;92.40;;;;;;5051815;28;20060;-78
2021/07/09 02:07:18;;;;;;;10.32;3.75;;;17.30;92.60;;;;;;5052053;28;20025;-79
2021/07/09 02:09:46;;;;;;;5.38;2.97;;;17.40;92.60;;;;;;5051778;28;20028;-79
2021/07/09 02:12:14;;;;;;;5.18;2.30;;;17.30;92.60;;;;;;5051980;28;20100;-79
2021/07/09 02:14:40;;;;;;;10.88;3.35;;;17.40;92.60;;;;;;5051925;28;20481;-80
2021/07/09 02:17:11;;;;;;;9.32;3.10;;;17.40;92.60;;;;;;5051883;28;20025;-79
2021/07/09 02:19:38;;;;;;;5.05;2.80;;;17.50;92.40;;;;;;5048568;28;20577;-79
2021/07/09 02:22:10;;;;;;;5.93;3.25;;;17.40;92.40;;;;;;5031912;28;20034;-79
2021/07/09 02:24:37;;;;;;;6.45;2.83;;;17.40;92.50;;;;;;5031711;28;20055;-79
2021/07/09 02:27:04;;;;;;;6.20;3.45;;;17.40;92.50;;;;;;5013970;28;20413;-79
2021/07/09 02:29:31;;;;;;;8.32;3.15;;;17.40;92.50;;;;;;5031702;28;20025;-79
2021/07/09 02:31:59;;;;;;;5.07;2.72;;;17.30;92.70;;;;;;5031861;28;20032;-79
2021/07/09 02:34:26;;;;;;;6.40;3.13;;;17.30;92.80;;;;;;5031757;28;20022;-79
2021/07/09 02:36:51;;;;;;;7.68;3.22;;;17.40;92.70;;;;;;5032035;28;20509;-79
2021/07/09 02:39:17;;;;;;;7.40;3.47;;;17.40;92.80;;;;;;5031625;28;20112;-78
2021/07/09 02:41:43;;;;;;;5.78;2.95;;;17.40;92.50;;;;;;5031869;28;20029;-80
2021/07/09 02:44:08;;;;;;;8.30;3.30;;;17.50;92.50;;;;;;5031982;28;20036;-79
2021/07/09 02:46:34;;;;;;;7.32;3.30;;;17.50;92.50;;;;;;5015448;28;20060;-79
2021/07/09 02:49:00;;;;;;;5.13;2.90;;;17.40;92.70;;;;;;5031828;28;20022;-79
2021/07/09 02:51:26;;;;;;;7.43;3.70;;;17.30;92.80;;;;;;5031580;28;20029;-79
2021/07/09 02:53:51;;;;;;;8.73;3.67;;;17.20;92.90;;;;;;5033250;28;20034;-78
2021/07/09 02:56:17;;;;;;;8.05;3.42;;;17.20;93.10;;;;;;5035201;28;20132;-78
2021/07/09 02:58:42;;;;;;;6.95;3.17;;;17.20;93.10;;;;;;5035322;28;20031;-79
2021/07/09 03:01:08;;;;;;;7.10;3.63;;;17.20;93.30;;;;;;5035200;28;20030;-79
2021/07/09 03:03:35;;;;;;;6.85;3.33;;;17.20;93.20;;;;;;5035284;28;20032;-77
2021/07/09 03:06:00;;;;;;;9.00;3.45;;;17.20;93.20;;;;;;5035359;28;20029;-78
2021/07/09 03:08:26;;;;;;;9.07;4.05;;;17.30;93.00;;;;;;5035057;28;20030;-79
2021/07/09 03:10:52;;;;;;;6.28;3.47;;;17.20;93.20;;;;;;5035030;28;20033;-79
2021/07/09 03:13:18;;;;;;;7.80;3.45;;;17.20;93.10;;;;;;5035093;28;20036;-79
2021/07/09 03:15:43;;;;;;;7.28;3.58;;;17.30;93.00;;;;;;5035103;28;20036;-78
2021/07/09 03:18:09;;;;;;;6.22;3.42;;;17.30;93.00;;;;;;5034970;28;20026;-79
2021/07/09 03:20:35;;;;;;;7.30;4.03;;;17.10;93.00;;;;;;5034836;28;20025;-79
2021/07/09 03:23:00;;;;;;;9.38;4.20;;;17.10;93.00;;;;;;5034976;28;20021;-78
2021/07/09 03:25:26;;;;;;;7.13;4.00;;;17.10;93.00;;;;;;5037449;28;20163;-79
2021/07/09 03:27:52;;;;;;;6.30;3.55;;;17.10;93.10;;;;;;5054504;28;20064;-79
2021/07/09 03:30:18;;;;;;;7.88;3.60;;;17.20;93.10;;;;;;5054651;28;20025;-80
2021/07/09 03:32:43;;;;;;;6.28;3.70;;;17.20;93.10;;;;;;5054804;28;20024;-79
2021/07/09 03:35:10;;;;;;;9.77;3.67;;;17.20;93.20;;;;;;5054618;28;20484;-78
2021/07/09 03:37:35;;;;;;;6.38;3.30;;;17.20;93.20;;;;;;5054615;28;20036;-79
2021/07/09 03:40:03;;;;;;;6.60;3.47;;;17.20;93.00;;;;;;5054491;28;20025;-79
2021/07/09 03:42:28;;;;;;;6.75;3.72;;;17.30;92.70;;;;;;5054508;28;20378;-78
2021/07/09 03:44:54;;;;;;;8.65;4.07;;;17.20;92.80;;;;;;5054401;28;20036;-78
2021/07/09 03:47:20;;;;;;;9.98;4.28;;;17.10;92.80;;;;;;5054593;28;20017;-80
2021/07/09 03:49:45;;;;;;;7.95;4.07;;;17.10;92.90;;;;;;5054152;28;20029;-79
2021/07/09 03:52:11;;;;;;;6.68;3.55;;;17.10;93.00;;;;;;5054242;28;20013;-78
2021/07/09 03:54:36;;;;;;;6.60;3.72;;;17.10;93.00;;;;;;5054189;28;20025;-79
2021/07/09 03:57:03;;;;;;;8.05;4.60;;;17.20;93.00;;;;;;5054192;28;20489;-79
2021/07/09 03:59:28;;;;;;;12.35;4.53;;;17.10;93.00;;;;;;5054020;28;20090;-79
2021/07/09 04:01:54;;;;;;;6.70;3.85;;;17.10;93.10;;;;;;5054222;28;20025;-77
2021/07/09 04:04:20;;;;;;;7.00;3.63;;;17.10;93.20;;;;;;5053569;28;20404;-79
2021/07/09 04:06:45;;;;;;;7.43;4.63;;;17.20;93.00;;;;;;5053587;28;20103;-79
2021/07/09 04:09:11;;;;;;;9.15;4.68;;;17.10;93.10;;;;;;5053823;28;20270;-79
2021/07/09 04:11:37;;;;;;;8.35;4.07;;;17.10;93.00;;;;;;5053913;28;20036;-79
2021/07/09 04:14:02;;;;;;;9.10;4.68;;;17.10;92.90;;;;;;5052584;28;20110;-79
2021/07/09 04:16:28;;;;;;;10.27;4.75;;;17.10;93.10;;;;;;5053684;28;20017;-78
2021/07/09 04:18:53;;;;;;;9.02;4.78;;;17.10;93.10;;;;;;5053648;28;20052;-78
2021/07/09 04:21:19;;;;;;;9.00;4.97;;;17.10;93.00;;;;;;5070532;28;20052;-79
2021/07/09 04:23:45;;;;;;;9.68;5.05;;;17.00;93.00;;;;;;5073766;28;20025;-78
2021/07/09 04:26:11;;;;;;;10.05;4.93;;;16.90;93.30;;;;;;5055415;28;20397;-79
2021/07/09 04:28:36;;;;;;;8.52;4.50;;;16.90;93.30;;;;;;5053452;28;20432;-79
2021/07/09 04:31:02;;;;;;;10.43;4.88;;;17.00;93.20;;;;;;5053475;28;20083;-78
2021/07/09 04:33:28;;;;;;;9.50;4.22;;;17.10;93.10;;;;;;5053484;28;20031;-79
2021/07/09 04:35:53;;;;;;;10.00;4.28;;;17.10;93.10;;;;;;5053442;28;20025;-78
2021/07/09 04:38:19;;;;;;;10.15;4.57;;;17.10;93.10;;;;;;5053758;28;20067;-78
2021/07/09 04:40:46;;;;;;;8.45;4.30;;;17.10;92.90;;;;;;5053020;28;20028;-78
2021/07/09 04:43:12;;;;;;;9.55;4.63;;;17.20;92.90;;;;;;5053452;28;20029;-78
2021/07/09 04:45:38;;;;;;;9.05;4.57;;;17.20;92.90;;;;;;5053249;28;20036;-79
2021/07/09 04:48:05;;;;;;;11.23;5.50;;;17.10;92.90;;;;;;5053592;28;20029;-78
2021/07/09 04:50:31;;;;;;;10.40;4.95;;;17.10;93.00;;;;;;5053190;28;20028;-79
2021/07/09 04:52:57;;;;;;;12.73;5.70;;;16.70;93.60;;;;;;5052762;28;20516;-79
2021/07/09 04:55:23;;;;;;;9.70;5.28;;;16.50;94.10;;;;;;5053093;28;20020;-78
2021/07/09 04:57:49;;;;;;;13.63;5.95;;;16.40;94.30;;;;;;5035715;28;20029;-79
2021/07/09 05:00:15;;;;;;;9.85;5.05;;;16.40;94.30;;;;;;5053048;28;20025;-78
2021/07/09 05:02:40;;;;;;;13.35;5.85;;;16.30;94.50;;;;;;5052924;28;20064;-79
2021/07/09 05:05:08;;;;;;;12.73;5.60;;;16.30;94.60;;;;;;5052790;28;20021;-78
2021/07/09 05:07:35;;;;;;;12.93;6.25;;;16.30;94.70;;;;;;5053294;28;20455;-80
2021/07/09 05:10:01;;;;;;;11.25;6.43;;;16.40;94.70;;;;;;5052948;28;20021;-79
2021/07/09 05:12:26;;;;;;;12.63;6.45;;;16.70;94.40;;;;;;5052789;28;20086;-79
2021/07/09 05:14:52;;;;;;;10.23;5.15;;;16.80;93.90;;;;;;5056880;28;20021;-79
2021/07/09 05:17:17;;;;;;;10.07;5.05;;;16.90;93.80;;;;;;5059422;28;20025;-79
2021/07/09 05:19:43;;;;;;;10.43;5.28;;;17.00;93.40;;;;;;5053106;28;20063;-78
2021/07/09 05:22:10;;;;;;;8.75;5.05;;;17.00;93.30;;;;;;5032644;28;20084;-80
2021/07/09 05:24:37;;;;;;;10.45;5.07;;;17.00;93.20;;;;;;5021307;28;20060;-79
2021/07/09 05:27:04;;;;;;;9.20;4.97;;;17.10;93.10;;;;;;5052826;28;20020;-80
2021/07/09 05:29:29;;;;;;;8.82;4.63;;;17.10;93.00;;;;;;5052802;28;20028;-78
2021/07/09 05:31:55;;;;;;;10.02;4.43;;;17.10;93.00;;;;;;5052449;28;20021;-78
2021/07/09 05:34:21;;;;;;;10.40;5.22;;;17.10;92.90;;;;;;5052407;28;20021;-79
2021/07/09 05:36:47;;;;;;;9.80;5.18;;;17.20;93.10;;;;;;5052609;28;20021;-79
2021/07/09 05:39:15;;;;;;;15.57;7.13;;;17.20;92.90;;;;;;5052643;28;20444;-78
2021/07/09 05:41:42;;;;;;;10.93;5.28;;;17.20;92.80;;;;;;5052409;28;20036;-78
2021/07/09 05:44:08;;;;;;;9.75;5.07;;;17.20;92.60;;;;;;5052268;28;20074;-79
2021/07/09 05:46:34;;;;;;;16.95;8.82;;;17.30;92.60;;;;;;5052518;28;20035;-80
2021/07/09 05:49:00;;;;;;;15.02;8.38;;;17.20;92.50;;;;;;5052539;28;20021;-79
2021/07/09 05:51:25;;;;;;;13.90;8.05;;;17.10;92.70;;;;;;5052122;28;20032;-79
2021/07/09 05:53:51;;;;;;;13.27;6.05;;;17.10;92.80;;;;;;5052007;28;20539;-78
2021/07/09 05:56:16;;;;;;;11.07;5.38;;;17.00;93.00;;;;;;5052189;28;20047;-79
2021/07/09 05:58:42;;;;;;;11.77;5.72;;;17.00;92.90;;;;;;5052559;28;20021;-78
2021/07/09 06:01:08;;;;;;;11.88;5.60;;;16.80;93.20;;;;;;5052163;28;20044;-79
2021/07/09 06:03:33;;;;;;;8.40;4.95;;;16.90;93.10;;;;;;5051817;28;20086;-79
2021/07/09 06:05:59;;;;;;;9.13;5.00;;;16.80;93.20;;;;;;5052096;28;20198;-79
2021/07/09 06:08:25;;;;;;;10.75;5.07;;;16.70;93.30;;;;;;5052385;28;20032;-79
2021/07/09 06:10:50;;;;;;;10.52;5.22;;;16.90;93.80;;;;;;5052109;28;20021;-78
2021/07/09 06:13:16;;;;;;;9.38;4.93;;;16.90;93.80;;;;;;5051872;28;20056;-79
2021/07/09 06:15:42;;;;;;;10.77;5.38;;;17.00;93.90;;;;;;5052189;28;20025;-79
2021/07/09 06:18:07;;;;;;;9.85;5.15;;;17.10;94.10;;;;;;5052342;28;20507;-78
2021/07/09 06:20:33;;;;;;;10.48;4.93;;;17.10;94.00;;;;;;5062623;28;20416;-78
2021/07/09 06:22:59;;;;;;;10.77;5.82;;;17.00;94.20;;;;;;5071947;28;20024;-78
2021/07/09 06:25:25;;;;;;;8.60;4.43;;;17.00;94.30;;;;;;5059968;28;20084;-77
2021/07/09 06:27:50;;;;;;;11.50;4.88;;;17.00;93.90;;;;;;5052048;28;20126;-78
2021/07/09 06:30:16;;;;;;;6.22;3.67;;;17.00;94.00;;;;;;5056087;28;20066;-80
2021/07/09 06:32:42;;;;;;;4.75;2.85;;;17.00;94.10;;;;;;5056184;28;20021;-76
2021/07/09 06:35:09;;;;;;;5.38;3.30;;;17.00;93.90;;;;;;5055706;28;20424;-74
2021/07/09 06:37:36;;;;;;;5.55;3.05;;;16.90;93.90;;;;;;5056205;28;20040;-75
2021/07/09 06:40:05;;;;;;;5.32;2.97;;;16.90;93.90;;;;;;5055654;28;20070;-75
2021/07/09 06:42:31;;;;;;;6.97;2.92;;;16.90;94.00;;;;;;5055540;28;20495;-75
2021/07/09 06:44:56;;;;;;;6.97;4.20;;;16.80;94.10;;;;;;5055802;28;20028;-75
2021/07/09 06:47:22;;;;;;;7.30;3.58;;;16.80;94.30;;;;;;5055902;28;20072;-77
2021/07/09 06:49:48;;;;;;;7.13;3.45;;;16.80;93.90;;;;;;5055752;28;20498;-76
2021/07/09 06:52:13;;;;;;;6.07;3.53;;;16.80;93.90;;;;;;5055048;28;20031;-77
2021/07/09 06:54:39;;;;;;;6.07;3.90;;;16.90;93.80;;;;;;5046765;28;20037;-79
2021/07/09 06:57:05;;;;;;;5.97;3.63;;;16.90;94.00;;;;;;5036880;28;20025;-78
2021/07/09 06:59:30;;;;;;;7.82;3.72;;;16.90;93.80;;;;;;5036922;28;20075;-76
2021/07/09 07:01:56;;;;;;;6.55;3.53;;;16.90;93.50;;;;;;5036877;28;20017;-81
2021/07/09 07:04:23;;;;;;;7.60;4.13;;;16.80;93.90;;;;;;5036642;28;20025;-81
2021/07/09 07:06:49;;;;;;;5.22;3.63;;;16.80;94.10;;;;;;5036233;28;20041;-75
2021/07/09 07:09:15;;;;;;;5.43;3.83;;;16.90;93.60;;;;;;5036496;28;20030;-76
2021/07/09 07:11:41;;;;;;;6.57;4.10;;;16.90;93.40;;;;;;5036308;28;20104;-76
2021/07/09 07:14:06;;;;;;;6.25;3.35;;;17.00;93.70;;;;;;5036201;28;20056;-79
2021/07/09 07:16:32;;;;;;;5.07;3.22;;;17.10;93.50;;;;;;5036662;28;20017;-78
2021/07/09 07:18:58;;;;;;;6.35;3.33;;;17.20;93.50;;;;;;5018368;28;20036;-76
2021/07/09 07:21:24;;;;;;;6.20;3.00;;;17.20;93.40;;;;;;5036535;28;20045;-77
2021/07/09 07:23:49;;;;;;;4.15;2.58;;;17.30;93.50;;;;;;5036735;28;20029;-77
2021/07/09 07:26:15;;;;;;;5.25;3.00;;;17.20;93.20;;;;;;5035585;28;20128;-78
2021/07/09 07:28:41;;;;;;;5.57;2.97;;;17.20;93.10;;;;;;5035834;28;20028;-77
2021/07/09 07:31:10;;;;;;;5.07;3.15;;;17.20;93.40;;;;;;5035862;28;20018;-79
2021/07/09 07:33:37;;;;;;;5.40;3.15;;;17.20;93.20;;;;;;5035833;28;20021;-76
2021/07/09 07:36:03;;;;;;;4.25;2.97;;;17.10;93.60;;;;;;5035733;28;20021;-76
2021/07/09 07:38:28;;;;;;;6.93;3.20;;;17.30;93.10;;;;;;5035741;28;20504;-77
2021/07/09 07:40:55;;;;;;;5.60;3.20;;;17.30;92.80;;;;;;5034397;28;20477;-77
2021/07/09 07:43:20;;;;;;;3.42;2.55;;;17.40;92.80;;;;;;5036097;28;20029;-79
2021/07/09 07:45:46;;;;;;;5.07;3.42;;;17.30;93.20;;;;;;5036398;28;20102;-79
2021/07/09 07:48:12;;;;;;;6.43;3.20;;;17.30;93.40;;;;;;5017807;28;20064;-76
2021/07/09 07:50:38;;;;;;;6.65;3.85;;;17.10;94.00;;;;;;5036568;28;20445;-77
2021/07/09 07:53:04;;;;;;;5.25;3.40;;;17.10;94.00;;;;;;5038476;28;20022;-75
2021/07/09 07:55:29;;;;;;;4.35;2.70;;;16.90;93.70;;;;;;5036530;28;20026;-76
2021/07/09 07:57:55;;;;;;;3.83;2.40;;;16.70;93.90;;;;;;5035758;28;20101;-76
2021/07/09 08:00:21;;;;;;;4.97;2.70;;;16.60;94.20;;;;;;5035860;28;20051;-78
2021/07/09 08:02:47;;;;;;;4.28;2.67;;;16.60;94.20;;;;;;5035245;28;20029;-76
2021/07/09 08:05:13;;;;;;;4.82;2.33;;;16.60;94.10;;;;;;5035190;28;20025;-78
2021/07/09 08:07:40;;;;;;;2.75;1.98;;;16.50;94.10;;;;;;5035568;28;20067;-80
2021/07/09 08:10:06;;;;;;;3.45;2.45;;;16.50;94.30;;;;;;5035116;28;20433;-77
2021/07/09 08:12:32;;;;;;;2.72;2.00;;;16.50;94.40;;;;;;5035574;28;20017;-79
2021/07/09 08:14:58;;;;;;;3.00;2.28;;;16.60;94.90;;;;;;5035315;28;20017;-83
2021/07/09 08:17:23;;;;;;;2.83;2.00;;;16.70;94.40;;;;;;5017186;28;20025;-76
2021/07/09 08:19:49;;;;;;;1.95;1.75;;;16.80;94.10;;;;;;5035145;28;20339;-78
2021/07/09 08:22:15;;;;;;;3.40;1.85;;;16.80;94.30;;;;;;5034881;28;20048;-77
2021/07/09 08:24:40;;;;;;;2.45;1.67;;;16.70;94.60;;;;;;5034718;28;20390;-78
2021/07/09 08:27:06;;;;;;;2.25;1.48;;;16.80;94.40;;;;;;5034787;28;20133;-78
2021/07/09 08:29:32;;;;;;;2.42;1.67;;;16.90;94.00;;;;;;5034838;28;20048;-77
2021/07/09 08:31:58;;;;;;;4.30;2.33;;;16.90;94.10;;;;;;5033597;28;20088;-79
2021/07/09 08:34:24;;;;;;;2.17;1.70;;;17.00;94.30;;;;;;5033692;28;20021;-76
2021/07/09 08:36:50;;;;;;;3.33;2.25;;;17.20;93.90;;;;;;5032995;28;20481;-76
2021/07/09 08:39:16;;;;;;;2.35;1.70;;;17.30;93.50;;;;;;5033809;28;20160;-76
2021/07/09 08:41:46;;;;;;;2.58;1.55;;;17.30;93.90;;;;;;5033175;28;20080;-78
2021/07/09 08:44:12;;;;;;;2.63;1.52;;;17.20;93.60;;;;;;5033681;28;20071;-77
2021/07/09 08:46:39;;;;;;;2.03;1.58;;;17.30;93.50;;;;;;5033554;28;20441;-78
2021/07/09 08:49:07;;;;;;;1.85;1.60;;;17.30;92.90;;;;;;5033717;28;20021;-75
2021/07/09 08:51:33;;;;;;;1.20;1.10;;;17.50;92.70;;;;;;5032466;28;20022;-79
2021/07/09 08:53:59;;;;;;;1.63;1.20;;;17.60;91.70;;;;;;5033323;28;20068;-79
2021/07/09 08:56:25;;;;;;;2.35;1.30;;;17.80;91.70;;;;;;5033432;28;20029;-77
2021/07/09 08:58:51;;;;;;;1.30;1.20;;;18.00;91.10;;;;;;5033652;28;20029;-77
2021/07/09 09:01:17;;;;;;;1.35;1.10;;;18.10;91.20;;;;;;5032855;28;20035;-77
2021/07/09 09:03:42;;;;;;;1.38;1.20;;;18.30;90.70;;;;;;5033007;28;20404;-79
2021/07/09 09:06:15;;;;;;;2.08;1.35;;;18.30;90.60;;;;;;5033018;28;20037;-79
2021/07/09 09:08:41;;;;;;;1.95;1.40;;;18.40;90.40;;;;;;5033653;28;20481;-76
2021/07/09 09:11:07;;;;;;;2.08;1.10;;;18.50;90.10;;;;;;5032922;28;20032;-77
2021/07/09 09:13:35;;;;;;;1.25;1.15;;;18.40;90.50;;;;;;5032929;28;20378;-78
2021/07/09 09:16:02;;;;;;;2.03;1.23;;;18.50;90.80;;;;;;5032678;28;20070;-79
2021/07/09 09:18:31;;;;;;;1.90;1.10;;;18.70;90.60;;;;;;5033177;28;20056;-77
2021/07/09 09:21:01;;;;;;;2.45;1.70;;;18.90;90.30;;;;;;5046401;28;20104;-77
2021/07/09 09:23:29;;;;;;;3.75;1.73;;;19.10;90.60;;;;;;5052605;28;20090;-80
2021/07/09 09:25:55;;;;;;;2.08;1.70;;;19.30;90.00;;;;;;5052910;28;20051;-78
2021/07/09 09:28:21;;;;;;;2.47;1.55;;;19.50;88.50;;;;;;5052598;28;20024;-77
2021/07/09 09:30:54;;;;;;;3.00;1.90;;;19.70;86.40;;;;;;5052693;28;20056;-78
2021/07/09 09:33:20;;;;;;;3.08;1.77;;;20.00;85.70;;;;;;5052120;28;20490;-77
2021/07/09 09:35:55;;;;;;;3.65;2.03;;;20.10;83.00;;;;;;5052432;28;20079;-77
2021/07/09 09:38:28;;;;;;;2.70;2.13;;;20.30;84.20;;;;;;5052633;28;20017;-77
2021/07/09 09:40:55;;;;;;;5.07;1.90;;;20.50;84.30;;;;;;5052099;28;20053;-77
2021/07/09 09:43:23;;;;;;;3.53;2.20;;;20.70;83.00;;;;;;5052092;28;20538;-76
2021/07/09 09:46:01;;;;;;;3.08;2.03;;;20.70;82.00;;;;;;5052194;28;20384;-77
2021/07/09 09:48:47;;;;;;;3.95;2.17;;;20.60;84.20;;;;;;5034512;28;20021;-80
2021/07/09 09:51:30;;;;;;;4.70;2.42;;;20.70;82.90;;;;;;5052107;28;20411;-75
2021/07/09 09:54:04;;;;;;;3.92;2.65;;;20.70;83.20;;;;;;5052027;28;20469;-77
2021/07/09 09:56:33;;;;;;;3.72;2.60;;;20.80;84.10;;;;;;5052126;28;20029;-77
2021/07/09 09:59:15;;;;;;;4.70;2.70;;;20.70;82.60;;;;;;5052616;28;20025;-78
2021/07/09 10:02:06;;;;;;;3.83;2.42;;;20.70;80.70;;;;;;5051836;28;20417;-77
2021/07/09 10:04:33;;;;;;;3.17;2.13;;;20.60;81.90;;;;;;5051064;28;20036;-78
2021/07/09 10:07:00;;;;;;;4.10;2.30;;;20.80;80.60;;;;;;5052146;28;20021;-76
2021/07/09 10:09:28;;;;;;;3.95;2.70;;;20.70;81.30;;;;;;5052222;28;20023;-74
2021/07/09 10:11:55;;;;;;;5.57;3.10;;;20.80;80.30;;;;;;5051823;28;20029;-75
2021/07/09 10:14:23;;;;;;;4.13;2.42;;;20.80;80.60;;;;;;5051848;28;20088;-77
2021/07/09 10:16:51;;;;;;;4.32;2.97;;;20.90;80.30;;;;;;5051808;28;20013;-77
2021/07/09 10:19:26;;;;;;;3.53;2.65;;;20.90;81.20;;;;;;5052462;28;20025;-77
2021/07/09 10:21:52;;;;;;;3.75;2.65;;;20.90;78.80;;;;;;5035785;28;20029;-76
2021/07/09 10:24:19;;;;;;;3.35;2.38;;;21.00;79.00;;;;;;5035576;28;20034;-77
2021/07/09 10:26:49;;;;;;;3.40;2.28;;;21.30;78.20;;;;;;5033033;28;20061;-78
2021/07/09 10:29:17;;;;;;;4.50;2.42;;;21.40;77.90;;;;;;5032186;28;20022;-78
2021/07/09 10:31:44;;;;;;;3.20;2.50;;;21.50;75.70;;;;;;5031818;28;20086;-76
2021/07/09 10:34:23;;;;;;;3.53;2.50;;;21.50;75.10;;;;;;5031844;28;20064;-78
2021/07/09 10:37:19;;;;;;;2.58;2.20;;;21.40;77.50;;;;;;5032163;28;20029;-78
2021/07/09 10:39:50;;;;;;;4.18;2.55;;;21.30;77.50;;;;;;5030190;28;20045;-76
2021/07/09 10:42:28;;;;;;;2.80;2.30;;;21.30;79.50;;;;;;5031788;28;20040;-78
2021/07/09 10:44:57;;;;;;;6.57;2.95;;;21.30;78.80;;;;;;5031702;28;20021;-78
2021/07/09 10:47:34;;;;;;;4.72;2.42;;;21.60;76.10;;;;;;5031784;28;20033;-78
2021/07/09 10:50:00;;;;;;;3.38;2.33;;;21.80;74.70;;;;;;5031602;28;20025;-78
2021/07/09 10:52:46;;;;;;;3.47;2.63;;;21.60;75.30;;;;;;5031353;28;20022;-76
2021/07/09 10:55:27;;;;;;;6.43;2.80;;;21.50;76.80;;;;;;5031469;28;20045;-79
2021/07/09 10:58:08;;;;;;;4.32;2.70;;;21.30;75.90;;;;;;5014200;28;20025;-77
2021/07/09 11:00:49;;;;;;;3.40;2.47;;;21.10;76.80;;;;;;5013831;28;20021;-77
2021/07/09 11:03:53;;;;;;;3.35;2.55;;;21.00;78.90;;;;;;5031383;28;20025;-78
2021/07/09 11:06:20;;;;;;;5.10;2.83;;;20.90;79.30;;;;;;4916167;29;20040;-75
2021/07/09 11:08:51;;;;;;;3.47;2.50;;;20.90;80.20;;;;;;4932095;29;20405;-78
2021/07/09 11:11:39;;;;;;;3.75;2.60;;;21.00;79.60;;;;;;4982533;28;20041;-80
2021/07/09 11:14:18;;;;;;;3.78;2.80;;;21.20;76.80;;;;;;5031718;28;20030;-76
2021/07/09 11:16:49;;;;;;;3.78;2.45;;;21.40;76.40;;;;;;5035002;28;20493;-78
2021/07/09 11:19:19;;;;;;;3.95;2.58;;;21.40;77.00;;;;;;5035212;28;20393;-78
2021/07/09 11:21:48;;;;;;;3.15;2.45;;;21.50;77.90;;;;;;5034812;28;20018;-78
2021/07/09 11:24:14;;;;;;;4.38;2.35;;;21.70;75.70;;;;;;5034592;28;20367;-78
2021/07/09 11:26:42;;;;;;;4.22;3.00;;;22.00;73.70;;;;;;5034959;28;20041;-77
2021/07/09 11:29:18;;;;;;;3.22;2.70;;;21.70;75.20;;;;;;5034787;28;20030;-77
2021/07/09 11:31:44;;;;;;;4.53;3.42;;;21.40;76.70;;;;;;5034694;28;20032;-80
2021/07/09 11:34:15;;;;;;;3.85;2.78;;;21.20;76.60;;;;;;5016810;28;20104;-78
2021/07/09 11:36:42;;;;;;;4.45;2.90;;;21.00;78.40;;;;;;5034835;28;20025;-77
2021/07/09 11:39:21;;;;;;;4.13;2.70;;;20.70;80.50;;;;;;5034929;28;20029;-79
2021/07/09 11:41:50;;;;;;;4.47;2.85;;;20.60;81.40;;;;;;5034429;28;20025;-77
2021/07/09 11:44:17;;;;;;;4.47;3.15;;;20.40;80.60;;;;;;5034458;28;20109;-79
2021/07/09 11:46:47;;;;;;;3.65;2.67;;;20.20;82.20;;;;;;5034499;28;20021;-76
2021/07/09 11:49:17;;;;;;;3.97;2.90;;;20.30;82.00;;;;;;5034403;28;20444;-78
2021/07/09 11:51:51;;;;;;;3.50;2.80;;;20.40;80.30;;;;;;5034274;28;20037;-77
2021/07/09 11:54:24;;;;;;;5.53;2.75;;;20.70;81.10;;;;;;5034095;28;20067;-80
2021/07/09 11:56:55;;;;;;;7.05;2.83;;;20.90;80.00;;;;;;5034356;28;20474;-78
2021/07/09 11:59:21;;;;;;;4.93;3.08;;;21.10;79.60;;;;;;5034270;28;20022;-78
2021/07/09 12:02:00;;;;;;;4.28;2.92;;;21.30;78.90;;;;;;5033940;28;20030;-77
2021/07/09 12:04:52;;;;;;;5.10;3.05;;;21.40;77.10;;;;;;5033632;28;20105;-80
2021/07/09 12:07:23;;;;;;;4.13;3.05;;;21.40;76.70;;;;;;5016028;28;20030;-77
2021/07/09 12:10:05;;;;;;;8.82;3.35;;;21.50;76.40;;;;;;5033938;28;20491;-77
2021/07/09 12:12:39;;;;;;;6.97;3.10;;;21.50;75.00;;;;;;5033688;28;20021;-79
2021/07/09 12:15:06;;;;;;;3.75;2.47;;;21.50;74.40;;;;;;5015918;28;20028;-80
2021/07/09 12:17:38;;;;;;;2.42;2.22;;;21.70;71.60;;;;;;5034017;28;20029;-76
2021/07/09 12:20:06;;;;;;;5.15;2.50;;;22.00;70.90;;;;;;5040243;28;20051;-77
2021/07/09 12:22:35;;;;;;;5.13;2.03;;;22.10;68.90;;;;;;5053691;28;20079;-77
2021/07/09 12:25:04;;;;;;;5.18;2.42;;;21.90;68.60;;;;;;5053279;28;20049;-77
2021/07/09 12:27:34;;;;;;;2.92;2.28;;;21.70;70.90;;;;;;5052841;28;20025;-76
2021/07/09 12:30:05;;;;;;;2.88;2.22;;;21.50;72.70;;;;;;5053623;28;20025;-78
2021/07/09 12:32:30;;;;;;;2.95;2.30;;;21.30;73.70;;;;;;5053382;28;20032;-76
2021/07/09 12:35:09;;;;;;;2.60;2.10;;;21.20;75.50;;;;;;5053359;28;20484;-78
2021/07/09 12:37:35;;;;;;;3.80;2.17;;;20.90;76.30;;;;;;5053594;28;20082;-77
2021/07/09 12:40:13;;;;;;;4.00;2.45;;;20.80;75.20;;;;;;5053638;28;20021;-78
2021/07/09 12:42:38;;;;;;;3.30;2.25;;;20.70;75.50;;;;;;5058435;28;20174;-77
2021/07/09 12:45:05;;;;;;;6.88;2.88;;;20.70;76.40;;;;;;5059114;28;20049;-77
2021/07/09 12:47:35;;;;;;;4.30;2.63;;;20.80;75.90;;;;;;5053333;28;20033;-77
2021/07/09 12:50:21;;;;;;;3.30;2.28;;;20.60;75.50;;;;;;5053249;28;20052;-76